Airfield :
LOGIN :

Register | Disclaimer

   EN    FR    IT 

 










Legend :    VFR   Marginal VFR   IFR   Intensive IFR   Very Intensive IFR
Visi :
Ceiling :
>= 8 km
>= 3000ft
5 to 8 km
1000 to 3000 ft
1500m to 5 km
500 to 1000 ft
800 to 1500m
200 to 500 ft
< 800m
< 200 ft
Symbols :   Thunderstorms  Fog  Heavy snow  Heavy precipitations  Wind > 20 kt
SIGMETs :     Misc.  Thunderstorms  Icing  Turbulence  Mountain Waves  Volcanic Ashes






- Airport Elevation : 325 ft
- IATA code : BES


LFRB - Brest

CURRENT METAR :
  • 270800Z AUTO 32018KT 9999 BKN018 OVC024 08/06 Q1001 BECMG 32017G30KT

EXPIRED METARs :
  • 270730Z AUTO 31018G30KT 9999 OVC014 08/06 Q0999 BECMG SCT020
  • 270700Z AUTO 29021G34KT 8000 -DZ BKN013 OVC018 09/08 Q0998 TEMPO 22020G45KT BECMG SCT020
  • 270630Z AUTO 28023G41KT 9999 BKN012 OVC018 11/10 Q0997 BECMG 32017G30KT SCT020
  • 270600Z AUTO 27022G36KT 9999 OVC011 11/10 Q0996 TEMPO OVC002
  • 270530Z AUTO 27022G34KT 9000 BKN009 OVC013 11/11 Q0996 TEMPO 22020G45KT OVC002
  • 270500Z AUTO 26022G35KT 7000 -RA OVC007 11/11 Q0996 TEMPO 4000 RADZ BECMG 32017G30KT SCT020

TAF TAF LFRB
Valid from the 27 at 06:00 until the 28 at 12:00 UTC


270500Z 2706/2812 26020G31KT 5000 RA OVC005
TEMPO 2706/2708 22020G45KT OVC002
BECMG 2706/2709 32017G30KT 9999 NSW SCT020
BECMG 2712/2715 32007KT
BECMG 2800/2802 18015G25KT RA BKN010
BECMG 2810/2812 24015G30KT
ATIS : +33 2 98 32 02 71



MET'MAP, your aeronautical weather chart ! - Copyright ORBIFLY December 2007 - Disclaimer

ORBIFLY MET'MAP TEAM :

Programming & Development : Alexandra Zaïnal
Concept & original design : Baudouin d'Aumeries
Assistance for programming : Marc-Olivier Méhu
Technical & hardware support : Manuel Goepfert

Contact : metmap@orbifly.com




SOURCES & CREDITS :

   NOAA